sensor_id;sensor_type;location;lat;lon;timestamp;P1;durP1;ratioP1;P2;durP2;ratioP2
12603;SDS011;6367;52.508;13.284;2022-08-04T00:02:02;7.17;;;6.57;;
12603;SDS011;6367;52.508;13.284;2022-08-04T00:04:31;7.60;;;6.60;;
12603;SDS011;6367;52.508;13.284;2022-08-04T00:07:13;7.70;;;7.00;;
12603;SDS011;6367;52.508;13.284;2022-08-04T00:10:00;7.30;;;6.60;;
12603;SDS011;6367;52.508;13.284;2022-08-04T00:12:28;6.83;;;6.20;;
12603;SDS011;6367;52.508;13.284;2022-08-04T00:14:58;6.10;;;5.50;;
12603;SDS011;6367;52.508;13.284;2022-08-04T00:17:30;6.40;;;5.83;;
12603;SDS011;6367;52.508;13.284;2022-08-04T00:20:00;6.80;;;6.20;;
12603;SDS011;6367;52.508;13.284;2022-08-04T00:22:29;6.83;;;6.13;;
12603;SDS011;6367;52.508;13.284;2022-08-04T00:24:56;6.27;;;5.77;;
12603;SDS011;6367;52.508;13.284;2022-08-04T00:27:27;6.37;;;5.87;;
12603;SDS011;6367;52.508;13.284;2022-08-04T00:29:57;6.20;;;5.60;;
12603;SDS011;6367;52.508;13.284;2022-08-04T00:32:24;6.00;;;5.50;;
12603;SDS011;6367;52.508;13.284;2022-08-04T00:34:51;7.80;;;6.07;;
12603;SDS011;6367;52.508;13.284;2022-08-04T00:37:21;6.33;;;5.73;;
12603;SDS011;6367;52.508;13.284;2022-08-04T00:39:48;6.87;;;5.97;;
12603;SDS011;6367;52.508;13.284;2022-08-04T01:06:05;7.27;;;6.57;;
12603;SDS011;6367;52.508;13.284;2022-08-04T01:08:53;7.80;;;6.27;;
12603;SDS011;6367;52.508;13.284;2022-08-04T01:16:52;6.60;;;6.10;;
12603;SDS011;6367;52.508;13.284;2022-08-04T01:30:02;7.07;;;6.43;;
12603;SDS011;6367;52.508;13.284;2022-08-04T01:32:33;7.10;;;6.40;;
12603;SDS011;6367;52.508;13.284;2022-08-04T01:40:27;7.37;;;6.67;;
12603;SDS011;6367;52.508;13.284;2022-08-04T01:42:53;7.50;;;6.80;;
12603;SDS011;6367;52.508;13.284;2022-08-04T01:45:22;7.70;;;6.90;;
12603;SDS011;6367;52.508;13.284;2022-08-04T01:47:53;7.10;;;6.33;;
12603;SDS011;6367;52.508;13.284;2022-08-04T01:50:19;8.57;;;7.10;;
12603;SDS011;6367;52.508;13.284;2022-08-04T01:52:46;6.47;;;5.87;;
12603;SDS011;6367;52.508;13.284;2022-08-04T01:55:13;7.10;;;6.40;;
12603;SDS011;6367;52.508;13.284;2022-08-04T01:57:44;6.90;;;6.23;;
12603;SDS011;6367;52.508;13.284;2022-08-04T02:00:12;6.30;;;5.70;;
12603;SDS011;6367;52.508;13.284;2022-08-04T02:02:40;7.00;;;6.20;;
12603;SDS011;6367;52.508;13.284;2022-08-04T02:05:08;6.73;;;6.13;;
12603;SDS011;6367;52.508;13.284;2022-08-04T02:07:58;6.70;;;6.00;;
12603;SDS011;6367;52.508;13.284;2022-08-04T02:10:29;7.80;;;6.10;;
12603;SDS011;6367;52.508;13.284;2022-08-04T02:18:31;8.10;;;6.70;;
12603;SDS011;6367;52.508;13.284;2022-08-04T02:21:08;6.30;;;5.77;;
12603;SDS011;6367;52.508;13.284;2022-08-04T02:23:37;7.33;;;6.63;;
12603;SDS011;6367;52.508;13.284;2022-08-04T02:26:15;11.00;;;6.77;;
12603;SDS011;6367;52.508;13.284;2022-08-04T02:28:47;7.23;;;6.53;;
12603;SDS011;6367;52.508;13.284;2022-08-04T02:36:43;10.77;;;6.70;;
12603;SDS011;6367;52.508;13.284;2022-08-04T02:39:12;6.30;;;5.70;;
12603;SDS011;6367;52.508;13.284;2022-08-04T02:41:42;7.30;;;6.67;;
12603;SDS011;6367;52.508;13.284;2022-08-04T02:44:10;6.67;;;6.07;;
12603;SDS011;6367;52.508;13.284;2022-08-04T02:46:37;7.23;;;6.63;;
12603;SDS011;6367;52.508;13.284;2022-08-04T02:49:06;7.57;;;6.73;;
12603;SDS011;6367;52.508;13.284;2022-08-04T02:51:37;6.30;;;5.77;;
12603;SDS011;6367;52.508;13.284;2022-08-04T02:54:05;7.00;;;6.40;;
12603;SDS011;6367;52.508;13.284;2022-08-04T02:56:34;6.97;;;6.37;;
12603;SDS011;6367;52.508;13.284;2022-08-04T02:59:07;7.27;;;6.23;;
12603;SDS011;6367;52.508;13.284;2022-08-04T03:01:38;6.57;;;5.93;;
12603;SDS011;6367;52.508;13.284;2022-08-04T03:04:13;7.73;;;7.00;;
12603;SDS011;6367;52.508;13.284;2022-08-04T03:12:27;6.50;;;5.90;;
12603;SDS011;6367;52.508;13.284;2022-08-04T03:15:28;6.93;;;6.33;;
12603;SDS011;6367;52.508;13.284;2022-08-04T03:18:28;6.73;;;6.13;;
12603;SDS011;6367;52.508;13.284;2022-08-04T03:21:04;7.17;;;5.80;;
12603;SDS011;6367;52.508;13.284;2022-08-04T04:01:34;7.43;;;6.90;;
12603;SDS011;6367;52.508;13.284;2022-08-04T04:10:02;6.30;;;5.80;;
12603;SDS011;6367;52.508;13.284;2022-08-04T04:21:12;7.07;;;6.47;;
12603;SDS011;6367;52.508;13.284;2022-08-04T04:24:12;6.90;;;6.20;;
12603;SDS011;6367;52.508;13.284;2022-08-04T04:30:46;9.53;;;7.00;;
12603;SDS011;6367;52.508;13.284;2022-08-04T04:33:25;6.50;;;6.00;;
12603;SDS011;6367;52.508;13.284;2022-08-04T04:44:25;6.10;;;5.50;;
12603;SDS011;6367;52.508;13.284;2022-08-04T04:52:55;6.70;;;6.10;;
12603;SDS011;6367;52.508;13.284;2022-08-04T04:55:44;6.70;;;6.10;;
12603;SDS011;6367;52.508;13.284;2022-08-04T04:58:15;7.03;;;6.43;;
12603;SDS011;6367;52.508;13.284;2022-08-04T05:06:33;6.73;;;6.13;;
12603;SDS011;6367;52.508;13.284;2022-08-04T05:12:21;6.07;;;5.57;;
12603;SDS011;6367;52.508;13.284;2022-08-04T05:14:56;6.83;;;6.30;;
12603;SDS011;6367;52.508;13.284;2022-08-04T05:17:26;7.23;;;6.50;;
12603;SDS011;6367;52.508;13.284;2022-08-04T05:20:00;7.07;;;6.47;;
12603;SDS011;6367;52.508;13.284;2022-08-04T05:23:14;7.00;;;6.30;;
12603;SDS011;6367;52.508;13.284;2022-08-04T05:25:34;7.07;;;6.57;;
12603;SDS011;6367;52.508;13.284;2022-08-04T05:30:52;7.03;;;6.30;;
12603;SDS011;6367;52.508;13.284;2022-08-04T05:33:26;6.30;;;5.80;;
12603;SDS011;6367;52.508;13.284;2022-08-04T05:35:59;6.50;;;5.87;;
12603;SDS011;6367;52.508;13.284;2022-08-04T05:38:32;6.53;;;5.93;;
12603;SDS011;6367;52.508;13.284;2022-08-04T05:41:01;6.40;;;5.90;;
12603;SDS011;6367;52.508;13.284;2022-08-04T05:43:28;6.10;;;5.60;;
12603;SDS011;6367;52.508;13.284;2022-08-04T05:45:54;6.10;;;5.60;;
12603;SDS011;6367;52.508;13.284;2022-08-04T05:48:21;5.23;;;4.83;;
12603;SDS011;6367;52.508;13.284;2022-08-04T05:50:49;6.27;;;5.87;;
12603;SDS011;6367;52.508;13.284;2022-08-04T05:53:16;5.80;;;5.40;;
12603;SDS011;6367;52.508;13.284;2022-08-04T05:55:43;6.60;;;6.00;;
12603;SDS011;6367;52.508;13.284;2022-08-04T05:58:09;5.83;;;5.43;;
12603;SDS011;6367;52.508;13.284;2022-08-04T06:00:37;6.17;;;5.60;;
12603;SDS011;6367;52.508;13.284;2022-08-04T06:03:05;6.07;;;5.43;;
12603;SDS011;6367;52.508;13.284;2022-08-04T06:05:33;5.67;;;5.27;;
12603;SDS011;6367;52.508;13.284;2022-08-04T06:07:59;5.80;;;5.40;;
12603;SDS011;6367;52.508;13.284;2022-08-04T06:10:25;7.17;;;5.13;;
12603;SDS011;6367;52.508;13.284;2022-08-04T06:12:54;5.97;;;5.37;;
12603;SDS011;6367;52.508;13.284;2022-08-04T06:15:23;6.60;;;6.10;;
12603;SDS011;6367;52.508;13.284;2022-08-04T06:17:54;7.00;;;6.57;;
12603;SDS011;6367;52.508;13.284;2022-08-04T06:20:26;9.80;;;5.37;;
12603;SDS011;6367;52.508;13.284;2022-08-04T06:22:58;6.87;;;6.27;;
12603;SDS011;6367;52.508;13.284;2022-08-04T06:25:33;6.00;;;5.43;;
12603;SDS011;6367;52.508;13.284;2022-08-04T06:28:05;6.57;;;5.97;;
12603;SDS011;6367;52.508;13.284;2022-08-04T06:30:32;5.40;;;5.00;;
12603;SDS011;6367;52.508;13.284;2022-08-04T06:33:00;5.80;;;5.40;;
12603;SDS011;6367;52.508;13.284;2022-08-04T06:35:27;5.53;;;4.60;;
12603;SDS011;6367;52.508;13.284;2022-08-04T06:37:55;5.13;;;4.73;;
12603;SDS011;6367;52.508;13.284;2022-08-04T06:40:22;5.20;;;4.87;;
12603;SDS011;6367;52.508;13.284;2022-08-04T06:42:49;5.43;;;5.03;;
12603;SDS011;6367;52.508;13.284;2022-08-04T06:45:16;4.87;;;4.57;;
12603;SDS011;6367;52.508;13.284;2022-08-04T06:47:44;5.70;;;5.10;;
12603;SDS011;6367;52.508;13.284;2022-08-04T06:50:11;5.17;;;4.67;;
12603;SDS011;6367;52.508;13.284;2022-08-04T06:52:38;7.63;;;5.43;;
12603;SDS011;6367;52.508;13.284;2022-08-04T06:55:04;5.13;;;4.60;;
12603;SDS011;6367;52.508;13.284;2022-08-04T06:57:31;5.00;;;4.60;;
12603;SDS011;6367;52.508;13.284;2022-08-04T07:00:00;5.20;;;4.27;;
12603;SDS011;6367;52.508;13.284;2022-08-04T07:02:27;4.13;;;3.90;;
12603;SDS011;6367;52.508;13.284;2022-08-04T07:04:57;4.70;;;4.37;;
12603;SDS011;6367;52.508;13.284;2022-08-04T07:07:23;5.47;;;5.07;;
12603;SDS011;6367;52.508;13.284;2022-08-04T07:09:49;3.73;;;3.53;;
12603;SDS011;6367;52.508;13.284;2022-08-04T07:12:15;5.40;;;4.87;;
12603;SDS011;6367;52.508;13.284;2022-08-04T07:14:45;4.93;;;4.10;;
12603;SDS011;6367;52.508;13.284;2022-08-04T07:17:12;4.97;;;4.57;;
12603;SDS011;6367;52.508;13.284;2022-08-04T07:19:40;5.93;;;4.90;;
12603;SDS011;6367;52.508;13.284;2022-08-04T07:22:08;4.70;;;4.37;;
12603;SDS011;6367;52.508;13.284;2022-08-04T07:24:35;4.97;;;4.53;;
12603;SDS011;6367;52.508;13.284;2022-08-04T07:27:02;4.63;;;4.23;;
12603;SDS011;6367;52.508;13.284;2022-08-04T07:29:29;4.83;;;4.30;;
12603;SDS011;6367;52.508;13.284;2022-08-04T07:31:55;4.83;;;4.37;;
12603;SDS011;6367;52.508;13.284;2022-08-04T07:34:22;5.00;;;3.47;;
12603;SDS011;6367;52.508;13.284;2022-08-04T07:36:50;4.40;;;4.20;;
12603;SDS011;6367;52.508;13.284;2022-08-04T07:39:18;4.10;;;3.80;;
12603;SDS011;6367;52.508;13.284;2022-08-04T07:41:45;3.90;;;3.60;;
12603;SDS011;6367;52.508;13.284;2022-08-04T07:44:12;4.23;;;3.83;;
12603;SDS011;6367;52.508;13.284;2022-08-04T07:46:39;3.77;;;3.47;;
12603;SDS011;6367;52.508;13.284;2022-08-04T07:49:05;4.70;;;4.30;;
12603;SDS011;6367;52.508;13.284;2022-08-04T07:51:32;4.40;;;4.00;;
12603;SDS011;6367;52.508;13.284;2022-08-04T07:53:59;4.23;;;3.93;;
12603;SDS011;6367;52.508;13.284;2022-08-04T07:56:29;5.23;;;4.83;;
12603;SDS011;6367;52.508;13.284;2022-08-04T07:58:56;4.53;;;3.80;;
12603;SDS011;6367;52.508;13.284;2022-08-04T08:01:23;4.23;;;3.83;;
12603;SDS011;6367;52.508;13.284;2022-08-04T08:03:50;6.40;;;3.53;;
12603;SDS011;6367;52.508;13.284;2022-08-04T08:06:17;3.80;;;3.60;;
12603;SDS011;6367;52.508;13.284;2022-08-04T08:08:43;4.33;;;3.80;;
12603;SDS011;6367;52.508;13.284;2022-08-04T08:11:10;3.40;;;3.20;;
12603;SDS011;6367;52.508;13.284;2022-08-04T08:13:36;4.13;;;3.83;;
12603;SDS011;6367;52.508;13.284;2022-08-04T08:16:02;4.43;;;4.00;;
12603;SDS011;6367;52.508;13.284;2022-08-04T08:18:29;4.47;;;4.10;;
12603;SDS011;6367;52.508;13.284;2022-08-04T08:20:55;3.57;;;3.27;;
12603;SDS011;6367;52.508;13.284;2022-08-04T08:23:21;5.63;;;3.87;;
12603;SDS011;6367;52.508;13.284;2022-08-04T08:25:47;4.63;;;4.17;;
12603;SDS011;6367;52.508;13.284;2022-08-04T08:28:15;3.90;;;3.60;;
12603;SDS011;6367;52.508;13.284;2022-08-04T08:30:41;4.03;;;3.70;;
12603;SDS011;6367;52.508;13.284;2022-08-04T08:33:08;4.60;;;4.30;;
12603;SDS011;6367;52.508;13.284;2022-08-04T08:35:42;4.07;;;3.87;;
12603;SDS011;6367;52.508;13.284;2022-08-04T08:38:11;4.50;;;4.10;;
12603;SDS011;6367;52.508;13.284;2022-08-04T08:40:57;3.90;;;3.60;;
12603;SDS011;6367;52.508;13.284;2022-08-04T08:43:57;4.13;;;3.83;;
12603;SDS011;6367;52.508;13.284;2022-08-04T08:54:43;3.87;;;3.57;;
12603;SDS011;6367;52.508;13.284;2022-08-04T08:57:41;4.77;;;4.37;;
12603;SDS011;6367;52.508;13.284;2022-08-04T09:00:18;4.23;;;3.93;;
12603;SDS011;6367;52.508;13.284;2022-08-04T09:05:41;4.00;;;3.70;;
12603;SDS011;6367;52.508;13.284;2022-08-04T09:08:43;4.10;;;3.73;;
12603;SDS011;6367;52.508;13.284;2022-08-04T09:11:16;3.97;;;3.27;;
12603;SDS011;6367;52.508;13.284;2022-08-04T09:13:56;4.20;;;3.97;;
12603;SDS011;6367;52.508;13.284;2022-08-04T09:16:34;4.33;;;4.00;;
12603;SDS011;6367;52.508;13.284;2022-08-04T09:19:09;4.57;;;4.17;;
12603;SDS011;6367;52.508;13.284;2022-08-04T09:24:41;3.87;;;3.57;;
12603;SDS011;6367;52.508;13.284;2022-08-04T09:30:03;5.60;;;5.20;;
12603;SDS011;6367;52.508;13.284;2022-08-04T09:40:47;3.37;;;3.17;;
12603;SDS011;6367;52.508;13.284;2022-08-04T09:43:27;3.53;;;3.33;;
12603;SDS011;6367;52.508;13.284;2022-08-04T09:54:08;4.90;;;4.43;;
12603;SDS011;6367;52.508;13.284;2022-08-04T09:56:41;4.50;;;4.20;;
12603;SDS011;6367;52.508;13.284;2022-08-04T09:59:24;3.90;;;3.60;;
12603;SDS011;6367;52.508;13.284;2022-08-04T10:01:55;3.83;;;3.53;;
12603;SDS011;6367;52.508;13.284;2022-08-04T10:04:25;4.20;;;3.90;;
12603;SDS011;6367;52.508;13.284;2022-08-04T10:18:37;4.17;;;3.77;;
12603;SDS011;6367;52.508;13.284;2022-08-04T10:30:05;3.70;;;3.10;;
12603;SDS011;6367;52.508;13.284;2022-08-04T10:35:27;3.67;;;3.47;;
12603;SDS011;6367;52.508;13.284;2022-08-04T10:43:08;3.07;;;2.77;;
12603;SDS011;6367;52.508;13.284;2022-08-04T10:51:17;3.73;;;2.97;;
12603;SDS011;6367;52.508;13.284;2022-08-04T10:53:58;3.70;;;3.50;;
12603;SDS011;6367;52.508;13.284;2022-08-04T10:58:58;3.73;;;3.27;;
12603;SDS011;6367;52.508;13.284;2022-08-04T11:01:31;3.70;;;3.40;;
12603;SDS011;6367;52.508;13.284;2022-08-04T11:04:03;3.83;;;3.30;;
12603;SDS011;6367;52.508;13.284;2022-08-04T11:06:34;3.20;;;2.93;;
12603;SDS011;6367;52.508;13.284;2022-08-04T11:09:01;3.50;;;3.30;;
12603;SDS011;6367;52.508;13.284;2022-08-04T11:11:38;3.80;;;3.60;;
12603;SDS011;6367;52.508;13.284;2022-08-04T11:14:26;4.93;;;3.67;;
12603;SDS011;6367;52.508;13.284;2022-08-04T11:17:00;4.03;;;3.77;;
12603;SDS011;6367;52.508;13.284;2022-08-04T11:19:32;4.03;;;3.73;;
12603;SDS011;6367;52.508;13.284;2022-08-04T11:30:13;3.87;;;3.57;;
12603;SDS011;6367;52.508;13.284;2022-08-04T11:32:45;4.37;;;3.70;;
12603;SDS011;6367;52.508;13.284;2022-08-04T11:35:46;3.73;;;3.50;;
12603;SDS011;6367;52.508;13.284;2022-08-04T11:38:48;3.97;;;3.63;;
12603;SDS011;6367;52.508;13.284;2022-08-04T11:41:34;5.40;;;4.87;;
12603;SDS011;6367;52.508;13.284;2022-08-04T11:44:11;5.37;;;3.30;;
12603;SDS011;6367;52.508;13.284;2022-08-04T11:46:46;3.30;;;3.10;;
12603;SDS011;6367;52.508;13.284;2022-08-04T11:51:48;5.57;;;4.33;;
12603;SDS011;6367;52.508;13.284;2022-08-04T11:54:16;3.83;;;3.53;;
12603;SDS011;6367;52.508;13.284;2022-08-04T11:56:43;3.10;;;2.90;;
12603;SDS011;6367;52.508;13.284;2022-08-04T11:59:09;3.33;;;3.13;;
12603;SDS011;6367;52.508;13.284;2022-08-04T12:04:05;4.20;;;3.90;;
12603;SDS011;6367;52.508;13.284;2022-08-04T12:07:01;9.10;;;6.40;;
12603;SDS011;6367;52.508;13.284;2022-08-04T12:09:35;4.40;;;3.90;;
12603;SDS011;6367;52.508;13.284;2022-08-04T12:12:21;3.80;;;3.60;;
12603;SDS011;6367;52.508;13.284;2022-08-04T12:20:33;3.20;;;3.00;;
12603;SDS011;6367;52.508;13.284;2022-08-04T12:23:09;4.70;;;4.40;;
12603;SDS011;6367;52.508;13.284;2022-08-04T12:25:39;3.00;;;2.80;;
12603;SDS011;6367;52.508;13.284;2022-08-04T12:28:17;3.50;;;3.20;;
12603;SDS011;6367;52.508;13.284;2022-08-04T12:30:59;3.50;;;3.20;;
12603;SDS011;6367;52.508;13.284;2022-08-04T12:33:44;3.13;;;2.93;;
12603;SDS011;6367;52.508;13.284;2022-08-04T12:36:30;3.73;;;3.27;;
12603;SDS011;6367;52.508;13.284;2022-08-04T12:39:17;3.40;;;3.20;;
12603;SDS011;6367;52.508;13.284;2022-08-04T12:41:46;2.90;;;2.70;;
12603;SDS011;6367;52.508;13.284;2022-08-04T12:44:22;3.30;;;3.07;;
12603;SDS011;6367;52.508;13.284;2022-08-04T12:46:55;3.47;;;3.27;;
12603;SDS011;6367;52.508;13.284;2022-08-04T12:49:22;3.60;;;3.30;;
12603;SDS011;6367;52.508;13.284;2022-08-04T12:51:49;2.80;;;2.70;;
12603;SDS011;6367;52.508;13.284;2022-08-04T12:54:15;2.90;;;2.70;;
12603;SDS011;6367;52.508;13.284;2022-08-04T12:56:49;3.10;;;2.77;;
12603;SDS011;6367;52.508;13.284;2022-08-04T12:59:15;2.97;;;2.73;;
12603;SDS011;6367;52.508;13.284;2022-08-04T13:01:46;3.33;;;2.70;;
12603;SDS011;6367;52.508;13.284;2022-08-04T13:04:15;2.60;;;2.50;;
12603;SDS011;6367;52.508;13.284;2022-08-04T13:07:06;2.50;;;2.40;;
12603;SDS011;6367;52.508;13.284;2022-08-04T13:09:34;2.60;;;2.50;;
12603;SDS011;6367;52.508;13.284;2022-08-04T13:12:03;2.53;;;2.40;;
12603;SDS011;6367;52.508;13.284;2022-08-04T13:14:39;2.87;;;2.67;;
12603;SDS011;6367;52.508;13.284;2022-08-04T13:17:08;2.30;;;2.20;;
12603;SDS011;6367;52.508;13.284;2022-08-04T13:19:34;3.43;;;3.23;;
12603;SDS011;6367;52.508;13.284;2022-08-04T13:22:00;2.63;;;2.43;;
12603;SDS011;6367;52.508;13.284;2022-08-04T13:24:27;4.43;;;3.20;;
12603;SDS011;6367;52.508;13.284;2022-08-04T13:29:20;2.43;;;2.33;;
12603;SDS011;6367;52.508;13.284;2022-08-04T13:31:54;3.10;;;2.87;;
12603;SDS011;6367;52.508;13.284;2022-08-04T13:34:20;3.20;;;2.90;;
12603;SDS011;6367;52.508;13.284;2022-08-04T13:36:47;2.80;;;2.63;;
12603;SDS011;6367;52.508;13.284;2022-08-04T13:39:17;2.10;;;2.00;;
12603;SDS011;6367;52.508;13.284;2022-08-04T13:41:49;4.30;;;2.40;;
12603;SDS011;6367;52.508;13.284;2022-08-04T13:44:19;2.93;;;2.50;;
12603;SDS011;6367;52.508;13.284;2022-08-04T13:49:20;2.83;;;2.63;;
12603;SDS011;6367;52.508;13.284;2022-08-04T13:51:50;2.50;;;2.40;;
12603;SDS011;6367;52.508;13.284;2022-08-04T13:54:18;2.70;;;2.50;;
12603;SDS011;6367;52.508;13.284;2022-08-04T13:56:46;2.80;;;2.70;;
12603;SDS011;6367;52.508;13.284;2022-08-04T13:59:17;3.47;;;2.70;;
12603;SDS011;6367;52.508;13.284;2022-08-04T14:01:55;3.27;;;2.97;;
12603;SDS011;6367;52.508;13.284;2022-08-04T14:04:28;4.33;;;2.77;;
12603;SDS011;6367;52.508;13.284;2022-08-04T14:07:01;2.73;;;2.53;;
12603;SDS011;6367;52.508;13.284;2022-08-04T14:09:28;4.90;;;4.43;;
12603;SDS011;6367;52.508;13.284;2022-08-04T14:12:03;3.03;;;2.83;;
12603;SDS011;6367;52.508;13.284;2022-08-04T14:14:35;2.63;;;2.53;;
12603;SDS011;6367;52.508;13.284;2022-08-04T14:17:11;3.00;;;2.70;;
12603;SDS011;6367;52.508;13.284;2022-08-04T14:25:12;2.47;;;2.33;;
12603;SDS011;6367;52.508;13.284;2022-08-04T14:30:23;2.73;;;2.40;;
12603;SDS011;6367;52.508;13.284;2022-08-04T14:33:03;2.30;;;2.10;;
12603;SDS011;6367;52.508;13.284;2022-08-04T14:35:29;3.30;;;2.00;;
12603;SDS011;6367;52.508;13.284;2022-08-04T14:38:09;2.47;;;2.30;;
12603;SDS011;6367;52.508;13.284;2022-08-04T14:40:36;3.93;;;2.10;;
12603;SDS011;6367;52.508;13.284;2022-08-04T14:43:05;2.40;;;2.20;;
12603;SDS011;6367;52.508;13.284;2022-08-04T14:45:33;2.73;;;2.53;;
12603;SDS011;6367;52.508;13.284;2022-08-04T14:48:01;2.67;;;2.57;;
12603;SDS011;6367;52.508;13.284;2022-08-04T14:50:36;2.37;;;2.27;;
12603;SDS011;6367;52.508;13.284;2022-08-04T14:53:04;2.37;;;2.17;;
12603;SDS011;6367;52.508;13.284;2022-08-04T14:55:43;2.10;;;2.00;;
12603;SDS011;6367;52.508;13.284;2022-08-04T14:58:18;2.60;;;2.40;;
12603;SDS011;6367;52.508;13.284;2022-08-04T15:00:43;2.23;;;2.13;;
12603;SDS011;6367;52.508;13.284;2022-08-04T15:03:09;3.00;;;2.40;;
12603;SDS011;6367;52.508;13.284;2022-08-04T15:05:36;8.23;;;7.47;;
12603;SDS011;6367;52.508;13.284;2022-08-04T15:08:04;7.00;;;6.50;;
12603;SDS011;6367;52.508;13.284;2022-08-04T15:10:30;6.37;;;5.87;;
12603;SDS011;6367;52.508;13.284;2022-08-04T15:12:56;6.37;;;5.87;;
12603;SDS011;6367;52.508;13.284;2022-08-04T15:15:22;6.07;;;5.57;;
12603;SDS011;6367;52.508;13.284;2022-08-04T15:17:49;7.20;;;6.50;;
12603;SDS011;6367;52.508;13.284;2022-08-04T15:20:16;6.97;;;6.37;;
12603;SDS011;6367;52.508;13.284;2022-08-04T15:22:42;7.07;;;6.50;;
12603;SDS011;6367;52.508;13.284;2022-08-04T15:25:08;5.30;;;3.80;;
12603;SDS011;6367;52.508;13.284;2022-08-04T15:27:35;2.87;;;2.77;;
12603;SDS011;6367;52.508;13.284;2022-08-04T15:30:03;2.60;;;2.40;;
12603;SDS011;6367;52.508;13.284;2022-08-04T15:32:34;2.57;;;2.37;;
12603;SDS011;6367;52.508;13.284;2022-08-04T15:35:04;2.50;;;2.40;;
12603;SDS011;6367;52.508;13.284;2022-08-04T15:40:23;2.70;;;2.50;;
12603;SDS011;6367;52.508;13.284;2022-08-04T15:43:27;2.40;;;2.30;;
12603;SDS011;6367;52.508;13.284;2022-08-04T15:45:55;2.40;;;2.30;;
12603;SDS011;6367;52.508;13.284;2022-08-04T15:48:24;2.67;;;2.50;;
12603;SDS011;6367;52.508;13.284;2022-08-04T15:53:19;2.27;;;2.17;;
12603;SDS011;6367;52.508;13.284;2022-08-04T15:55:45;2.33;;;2.23;;
12603;SDS011;6367;52.508;13.284;2022-08-04T15:58:11;2.33;;;2.23;;
12603;SDS011;6367;52.508;13.284;2022-08-04T16:06:00;2.40;;;2.30;;
12603;SDS011;6367;52.508;13.284;2022-08-04T16:21:58;11.13;;;10.10;;
12603;SDS011;6367;52.508;13.284;2022-08-04T16:27:03;3.00;;;2.80;;
12603;SDS011;6367;52.508;13.284;2022-08-04T16:34:37;2.37;;;2.20;;
12603;SDS011;6367;52.508;13.284;2022-08-04T16:37:10;2.30;;;2.10;;
12603;SDS011;6367;52.508;13.284;2022-08-04T16:39:37;2.10;;;2.00;;
12603;SDS011;6367;52.508;13.284;2022-08-04T16:42:46;2.20;;;2.07;;
12603;SDS011;6367;52.508;13.284;2022-08-04T16:50:19;2.20;;;2.00;;
12603;SDS011;6367;52.508;13.284;2022-08-04T16:52:47;2.83;;;2.63;;
12603;SDS011;6367;52.508;13.284;2022-08-04T16:55:21;6.30;;;4.83;;
12603;SDS011;6367;52.508;13.284;2022-08-04T16:57:49;6.03;;;5.53;;
12603;SDS011;6367;52.508;13.284;2022-08-04T17:00:26;8.03;;;7.40;;
12603;SDS011;6367;52.508;13.284;2022-08-04T17:03:03;5.87;;;5.43;;
12603;SDS011;6367;52.508;13.284;2022-08-04T17:05:30;4.20;;;3.90;;
12603;SDS011;6367;52.508;13.284;2022-08-04T17:07:57;3.13;;;2.83;;
12603;SDS011;6367;52.508;13.284;2022-08-04T17:10:31;2.80;;;2.60;;
12603;SDS011;6367;52.508;13.284;2022-08-04T17:12:56;2.60;;;2.40;;
12603;SDS011;6367;52.508;13.284;2022-08-04T17:15:23;2.90;;;2.70;;
12603;SDS011;6367;52.508;13.284;2022-08-04T17:17:49;2.23;;;2.10;;
12603;SDS011;6367;52.508;13.284;2022-08-04T17:20:16;4.00;;;2.17;;
12603;SDS011;6367;52.508;13.284;2022-08-04T17:25:19;2.50;;;2.40;;
12603;SDS011;6367;52.508;13.284;2022-08-04T17:27:44;2.07;;;1.93;;
12603;SDS011;6367;52.508;13.284;2022-08-04T17:30:24;2.70;;;2.50;;
12603;SDS011;6367;52.508;13.284;2022-08-04T17:32:50;2.20;;;2.10;;
12603;SDS011;6367;52.508;13.284;2022-08-04T17:35:16;2.20;;;2.10;;
12603;SDS011;6367;52.508;13.284;2022-08-04T17:37:42;1.70;;;1.60;;
12603;SDS011;6367;52.508;13.284;2022-08-04T17:42:35;2.03;;;1.93;;
12603;SDS011;6367;52.508;13.284;2022-08-04T17:45:10;1.87;;;1.77;;
12603;SDS011;6367;52.508;13.284;2022-08-04T17:47:50;2.90;;;2.20;;
12603;SDS011;6367;52.508;13.284;2022-08-04T17:50:23;2.70;;;2.27;;
12603;SDS011;6367;52.508;13.284;2022-08-04T17:53:01;2.80;;;2.60;;
12603;SDS011;6367;52.508;13.284;2022-08-04T17:55:36;2.10;;;2.00;;
12603;SDS011;6367;52.508;13.284;2022-08-04T17:58:13;1.67;;;1.57;;
12603;SDS011;6367;52.508;13.284;2022-08-04T18:00:40;2.00;;;1.90;;
12603;SDS011;6367;52.508;13.284;2022-08-04T18:03:06;1.90;;;1.80;;
12603;SDS011;6367;52.508;13.284;2022-08-04T18:05:31;2.37;;;2.17;;
12603;SDS011;6367;52.508;13.284;2022-08-04T18:08:04;2.50;;;2.30;;
12603;SDS011;6367;52.508;13.284;2022-08-04T18:10:35;2.27;;;2.07;;
12603;SDS011;6367;52.508;13.284;2022-08-04T18:13:05;2.30;;;2.20;;
12603;SDS011;6367;52.508;13.284;2022-08-04T18:15:31;2.10;;;2.00;;
12603;SDS011;6367;52.508;13.284;2022-08-04T18:17:57;2.03;;;1.93;;
12603;SDS011;6367;52.508;13.284;2022-08-04T18:20:40;2.10;;;1.90;;
12603;SDS011;6367;52.508;13.284;2022-08-04T18:23:05;2.30;;;2.10;;
12603;SDS011;6367;52.508;13.284;2022-08-04T18:25:34;1.93;;;1.83;;
12603;SDS011;6367;52.508;13.284;2022-08-04T18:28:00;2.20;;;2.07;;
12603;SDS011;6367;52.508;13.284;2022-08-04T18:30:30;2.13;;;2.03;;
12603;SDS011;6367;52.508;13.284;2022-08-04T18:32:56;2.37;;;2.17;;
12603;SDS011;6367;52.508;13.284;2022-08-04T18:35:21;2.30;;;2.10;;
12603;SDS011;6367;52.508;13.284;2022-08-04T18:37:47;2.20;;;2.10;;
12603;SDS011;6367;52.508;13.284;2022-08-04T18:40:14;1.83;;;1.73;;
12603;SDS011;6367;52.508;13.284;2022-08-04T18:42:40;2.30;;;2.20;;
12603;SDS011;6367;52.508;13.284;2022-08-04T18:45:06;1.80;;;1.70;;
12603;SDS011;6367;52.508;13.284;2022-08-04T18:47:33;2.63;;;2.43;;
12603;SDS011;6367;52.508;13.284;2022-08-04T18:49:59;1.93;;;1.80;;
12603;SDS011;6367;52.508;13.284;2022-08-04T18:52:25;2.00;;;1.90;;
12603;SDS011;6367;52.508;13.284;2022-08-04T18:54:51;2.50;;;2.40;;
12603;SDS011;6367;52.508;13.284;2022-08-04T18:57:17;2.70;;;2.47;;
12603;SDS011;6367;52.508;13.284;2022-08-04T18:59:44;2.33;;;2.13;;
12603;SDS011;6367;52.508;13.284;2022-08-04T19:02:10;2.70;;;2.50;;
12603;SDS011;6367;52.508;13.284;2022-08-04T19:04:36;3.20;;;3.00;;
12603;SDS011;6367;52.508;13.284;2022-08-04T19:07:01;2.33;;;2.23;;
12603;SDS011;6367;52.508;13.284;2022-08-04T19:09:30;1.97;;;1.87;;
12603;SDS011;6367;52.508;13.284;2022-08-04T19:11:56;2.50;;;2.30;;
12603;SDS011;6367;52.508;13.284;2022-08-04T19:14:22;2.17;;;1.77;;
12603;SDS011;6367;52.508;13.284;2022-08-04T19:16:47;2.50;;;2.30;;
12603;SDS011;6367;52.508;13.284;2022-08-04T19:19:13;2.70;;;2.40;;
12603;SDS011;6367;52.508;13.284;2022-08-04T19:21:41;2.53;;;2.40;;
12603;SDS011;6367;52.508;13.284;2022-08-04T19:24:06;2.57;;;2.20;;
12603;SDS011;6367;52.508;13.284;2022-08-04T19:26:32;2.07;;;1.93;;
12603;SDS011;6367;52.508;13.284;2022-08-04T19:28:59;2.43;;;2.23;;
12603;SDS011;6367;52.508;13.284;2022-08-04T19:31:25;2.53;;;2.33;;
12603;SDS011;6367;52.508;13.284;2022-08-04T19:33:51;2.17;;;1.97;;
12603;SDS011;6367;52.508;13.284;2022-08-04T19:36:16;2.63;;;2.43;;
12603;SDS011;6367;52.508;13.284;2022-08-04T19:38:43;2.70;;;2.50;;
12603;SDS011;6367;52.508;13.284;2022-08-04T19:41:09;2.40;;;2.30;;
12603;SDS011;6367;52.508;13.284;2022-08-04T19:43:35;3.47;;;3.17;;
12603;SDS011;6367;52.508;13.284;2022-08-04T19:46:01;2.83;;;2.63;;
12603;SDS011;6367;52.508;13.284;2022-08-04T19:48:26;2.73;;;2.53;;
12603;SDS011;6367;52.508;13.284;2022-08-04T19:50:52;3.97;;;3.23;;
12603;SDS011;6367;52.508;13.284;2022-08-04T19:53:18;3.10;;;2.90;;
12603;SDS011;6367;52.508;13.284;2022-08-04T19:55:44;2.87;;;2.67;;
12603;SDS011;6367;52.508;13.284;2022-08-04T19:58:10;2.90;;;2.70;;
12603;SDS011;6367;52.508;13.284;2022-08-04T20:00:37;4.70;;;2.67;;